createdAt,value
2022-10-12T10:27:16.563Z,30080.00
2022-10-12T10:28:16.538Z,30048.00
2022-10-12T10:29:16.487Z,29920.00
2022-10-12T10:30:29.856Z,30272.00
2022-10-12T10:31:16.446Z,30560.00
2022-10-12T10:32:16.425Z,30880.00
2022-10-12T10:33:16.402Z,31200.00
2022-10-12T10:34:16.386Z,31168.00
2022-10-12T10:35:16.361Z,30688.00
2022-10-12T10:36:16.339Z,30528.00
2022-10-12T10:37:16.415Z,30272.00
2022-10-12T10:38:16.297Z,30304.00
2022-10-12T10:39:16.275Z,30592.00
2022-10-12T10:40:16.611Z,30272.00
2022-10-12T10:41:16.236Z,30208.00
2022-10-12T10:42:16.211Z,30176.00
2022-10-12T10:43:16.207Z,30144.00
2022-10-12T10:44:19.607Z,30144.00
2022-10-12T10:45:16.460Z,30304.00
2022-10-12T10:46:16.149Z,31072.00
2022-10-12T10:47:16.103Z,5996.00
2022-10-12T10:48:16.428Z,6392.00
2022-10-12T10:49:16.059Z,31200.00
2022-10-12T10:50:16.309Z,8380.00
2022-10-12T10:51:16.015Z,7756.00
2022-10-12T10:52:15.995Z,26432.00
2022-10-12T10:53:15.973Z,31392.00
2022-10-12T10:54:15.946Z,31936.00
2022-10-12T10:55:15.925Z,32896.00
2022-10-12T10:56:15.907Z,33472.00
2022-10-12T10:57:15.884Z,33216.00
2022-10-12T10:58:15.859Z,32800.00
2022-10-12T10:59:15.862Z,32608.00
2022-10-12T11:00:41.538Z,33088.00
2022-10-12T11:01:15.855Z,33728.00
2022-10-12T11:02:15.772Z,33792.00
2022-10-12T11:03:15.795Z,33440.00
2022-10-12T11:04:15.728Z,32512.00
2022-10-12T11:05:15.922Z,31616.00
2022-10-12T11:06:15.684Z,31040.00
2022-10-12T11:07:15.659Z,31008.00
2022-10-12T11:08:15.635Z,31552.00
2022-10-12T11:09:15.637Z,31840.00
2022-10-12T11:10:15.591Z,32096.00
2022-10-12T11:11:15.575Z,31744.00
2022-10-12T11:12:15.547Z,31648.00
2022-10-12T11:13:15.525Z,31616.00
2022-10-12T11:14:15.504Z,31328.00
2022-10-12T11:15:15.501Z,31360.00
2022-10-12T11:16:15.459Z,31840.00
2022-10-12T11:17:15.437Z,20288.00
2022-10-12T11:18:15.415Z,9984.00
2022-10-12T11:19:15.392Z,10012.00
2022-10-12T11:20:18.852Z,32384.00
2022-10-12T11:21:15.346Z,32640.00
2022-10-12T11:22:15.326Z,32800.00
2022-10-12T11:23:15.303Z,32992.00
2022-10-12T11:24:15.279Z,33440.00
2022-10-12T11:25:15.257Z,33952.00
2022-10-12T11:26:15.237Z,34272.00
2022-10-12T11:27:15.215Z,34496.00
2022-10-12T11:28:15.234Z,34656.00
2022-10-12T11:29:15.171Z,34528.00
2022-10-12T11:30:15.146Z,33696.00
2022-10-12T11:31:15.144Z,10220.00
2022-10-12T11:32:15.228Z,15516.00
2022-10-12T11:33:15.081Z,31360.00
2022-10-12T11:34:15.061Z,12568.00
2022-10-12T11:35:15.034Z,10364.00
2022-10-12T11:36:15.010Z,30976.00
2022-10-12T11:37:19.556Z,31360.00
2022-10-12T11:38:15.471Z,31744.00
2022-10-12T11:39:17.082Z,31520.00
2022-10-12T11:40:14.924Z,31136.00
2022-10-12T11:41:36.542Z,30784.00
2022-10-12T11:42:22.851Z,30528.00
2022-10-12T11:43:14.861Z,29696.00
2022-10-12T11:44:14.831Z,29952.00
2022-10-12T11:45:14.819Z,30048.00
2022-10-12T11:46:14.788Z,7112.00
2022-10-12T11:47:14.789Z,7284.00
2022-10-12T11:48:14.743Z,19296.00
2022-10-12T11:49:14.717Z,29536.00
2022-10-12T11:50:14.696Z,29504.00
2022-10-12T11:51:14.671Z,29280.00
2022-10-12T11:52:14.648Z,28992.00
2022-10-12T11:53:14.624Z,28928.00
2022-10-12T11:54:14.967Z,28864.00
2022-10-12T11:55:14.576Z,28544.00
2022-10-12T11:56:14.558Z,28032.00
2022-10-12T11:57:14.532Z,27744.00
2022-10-12T11:58:14.509Z,27616.00
2022-10-12T11:59:14.484Z,27488.00
2022-10-12T12:00:14.459Z,27552.00
2022-10-12T12:01:14.437Z,27648.00
2022-10-12T12:02:14.419Z,27744.00
2022-10-12T12:03:14.520Z,27648.00
2022-10-12T12:04:39.983Z,27744.00
2022-10-12T12:05:16.722Z,27616.00
2022-10-12T12:06:14.325Z,27776.00
2022-10-12T12:07:14.306Z,27936.00
2022-10-12T12:08:14.282Z,27840.00
2022-10-12T12:09:14.310Z,26816.00
2022-10-12T12:10:14.237Z,25984.00
2022-10-12T12:11:14.213Z,26624.00
2022-10-12T12:12:14.191Z,26688.00
2022-10-12T12:13:14.168Z,26752.00
2022-10-12T12:14:14.147Z,26496.00
2022-10-12T12:15:14.123Z,26208.00
2022-10-12T12:16:14.098Z,26176.00
2022-10-12T12:17:14.079Z,25984.00
2022-10-12T12:18:14.053Z,26112.00
2022-10-12T12:19:14.054Z,25920.00
2022-10-12T12:20:14.010Z,25824.00
2022-10-12T12:21:13.984Z,25888.00
2022-10-12T12:22:13.962Z,25952.00
2022-10-12T12:23:13.945Z,26048.00
2022-10-12T12:24:13.922Z,25952.00
2022-10-12T12:25:13.944Z,25696.00
2022-10-12T12:26:16.891Z,25856.00
2022-10-12T12:27:13.850Z,25728.00
2022-10-12T12:28:13.864Z,25632.00
2022-10-12T12:29:13.808Z,25536.00
2022-10-12T12:30:13.785Z,25632.00
2022-10-12T12:31:13.762Z,25472.00
2022-10-12T12:32:13.746Z,18176.00
2022-10-12T12:33:13.719Z,25408.00
2022-10-12T12:34:13.702Z,16640.00
2022-10-12T12:35:13.826Z,25376.00
2022-10-12T12:36:13.647Z,25888.00
2022-10-12T12:37:13.632Z,24928.00
2022-10-12T12:38:13.605Z,12388.00
2022-10-12T12:39:13.580Z,26016.00
2022-10-12T12:40:13.560Z,18656.00
2022-10-12T12:41:13.537Z,8852.00
2022-10-12T12:42:13.514Z,16608.00
2022-10-12T12:43:13.493Z,24096.00
2022-10-12T12:44:13.467Z,24000.00
2022-10-12T12:45:13.445Z,24352.00
2022-10-12T12:46:13.418Z,24128.00
2022-10-12T12:47:43.865Z,12408.00
2022-10-12T12:48:13.373Z,10164.00
2022-10-12T12:49:13.353Z,8552.00
2022-10-12T12:50:13.329Z,22624.00
2022-10-12T12:51:13.324Z,22848.00
2022-10-12T12:52:13.283Z,22656.00
2022-10-12T12:53:13.259Z,22464.00
2022-10-12T12:54:13.237Z,22240.00
2022-10-12T12:55:13.214Z,21984.00
2022-10-12T12:56:13.188Z,21760.00
2022-10-12T12:57:13.166Z,21856.00
2022-10-12T12:58:13.148Z,21536.00
2022-10-12T12:59:13.121Z,21408.00
2022-10-12T13:00:13.298Z,21472.00
2022-10-12T13:01:13.162Z,21312.00
2022-10-12T13:02:13.052Z,21088.00
2022-10-12T13:03:13.034Z,21216.00
2022-10-12T13:04:13.006Z,21216.00
2022-10-12T13:05:12.992Z,21120.00
2022-10-12T13:06:12.958Z,20928.00
2022-10-12T13:07:12.960Z,20928.00
2022-10-12T13:08:12.913Z,20736.00
2022-10-12T13:09:12.887Z,20640.00
2022-10-12T13:10:12.867Z,20384.00
2022-10-12T13:11:12.846Z,20288.00
2022-10-12T13:12:12.820Z,20320.00
2022-10-12T13:13:12.800Z,20128.00
2022-10-12T13:14:12.775Z,19808.00
2022-10-12T13:15:12.750Z,19968.00
2022-10-12T13:16:19.540Z,19840.00
2022-10-12T13:18:28.471Z,19328.00
2022-10-12T13:19:12.661Z,18976.00
2022-10-12T13:20:12.635Z,18784.00
2022-10-12T13:21:12.616Z,18528.00
2022-10-12T13:22:12.591Z,18560.00
2022-10-12T13:23:12.619Z,17728.00
2022-10-12T13:24:12.552Z,11764.00
2022-10-12T13:25:12.524Z,8280.00
2022-10-12T13:26:12.505Z,17696.00
2022-10-12T13:27:12.480Z,17696.00
2022-10-12T13:28:12.481Z,17632.00
2022-10-12T13:29:12.431Z,17376.00
2022-10-12T13:30:12.407Z,17184.00
2022-10-12T13:31:12.384Z,16992.00
2022-10-12T13:32:12.363Z,16704.00
2022-10-12T13:33:12.339Z,16416.00
2022-10-12T13:34:12.315Z,16192.00
2022-10-12T13:35:12.292Z,16576.00
2022-10-12T13:36:12.268Z,16448.00
2022-10-12T13:37:12.269Z,16384.00
2022-10-12T13:38:12.223Z,16224.00
2022-10-12T13:39:12.198Z,15968.00
2022-10-12T13:40:12.175Z,15808.00
2022-10-12T13:41:12.151Z,15776.00
2022-10-12T13:42:12.129Z,15456.00
2022-10-12T13:43:12.104Z,15096.00
2022-10-12T13:44:12.079Z,14740.00
2022-10-12T13:45:12.060Z,14668.00
2022-10-12T13:46:12.039Z,14744.00
2022-10-12T13:47:12.015Z,14740.00
2022-10-12T13:48:11.988Z,14684.00
2022-10-12T13:49:11.988Z,14612.00
2022-10-12T13:50:11.940Z,14292.00
2022-10-12T13:51:11.919Z,13996.00
2022-10-12T13:52:11.892Z,13832.00
2022-10-12T13:53:11.887Z,13892.00
2022-10-12T13:54:11.848Z,13748.00
2022-10-12T13:55:11.824Z,13520.00
2022-10-12T13:56:11.799Z,13528.00
2022-10-12T13:57:11.783Z,13340.00
2022-10-12T13:58:11.755Z,13176.00
2022-10-12T13:59:13.365Z,12996.00
2022-10-12T14:00:11.708Z,12928.00
2022-10-12T14:01:11.746Z,12836.00
2022-10-12T14:02:11.658Z,12672.00
2022-10-12T14:03:11.634Z,12552.00
2022-10-12T14:04:11.614Z,12380.00
2022-10-12T14:05:11.588Z,12300.00
2022-10-12T14:06:11.565Z,12200.00
2022-10-12T14:07:11.545Z,12008.00
2022-10-12T14:08:11.520Z,11800.00
2022-10-12T14:09:11.514Z,11456.00
2022-10-12T14:10:11.472Z,8708.00
2022-10-12T14:11:11.450Z,10596.00
2022-10-12T14:12:11.427Z,11372.00
2022-10-12T14:13:11.401Z,10560.00
2022-10-12T14:14:11.379Z,11092.00
2022-10-12T14:15:11.356Z,10960.00
2022-10-12T14:17:11.407Z,9340.00
2022-10-12T14:18:11.283Z,10416.00
2022-10-12T14:19:11.259Z,10456.00
2022-10-12T14:20:11.236Z,10340.00
2022-10-12T14:21:11.212Z,10444.00
2022-10-12T14:22:11.190Z,10144.00
2022-10-12T14:23:11.166Z,9976.00
2022-10-12T14:24:11.145Z,9776.00
2022-10-12T14:25:11.148Z,5972.00
2022-10-12T14:26:11.097Z,9532.00
2022-10-12T14:27:11.076Z,9396.00
2022-10-12T14:28:11.095Z,9352.00
2022-10-12T14:29:11.029Z,9224.00
2022-10-12T14:30:11.007Z,9084.00
2022-10-12T14:31:10.980Z,8984.00
2022-10-12T14:32:10.960Z,8868.00
2022-10-12T14:33:11.465Z,8752.00
2022-10-12T14:34:12.480Z,8636.00
2022-10-12T14:35:10.891Z,8472.00
2022-10-12T14:36:10.861Z,8364.00
2022-10-12T14:37:10.840Z,8228.00
2022-10-12T14:38:10.819Z,8088.00
2022-10-12T14:39:10.796Z,7992.00
2022-10-12T14:40:10.772Z,7924.00
2022-10-12T14:41:10.776Z,7772.00
2022-10-12T14:42:10.725Z,7656.00
2022-10-12T14:43:10.822Z,7576.00
2022-10-12T14:44:11.172Z,7480.00
2022-10-12T14:45:10.649Z,7300.00
2022-10-12T14:46:10.633Z,7116.00
2022-10-12T14:47:10.859Z,7016.00
2022-10-12T14:48:10.633Z,6952.00
2022-10-12T14:49:10.564Z,6800.00
2022-10-12T14:50:10.537Z,6728.00
2022-10-12T14:51:13.172Z,6628.00
2022-10-12T14:52:10.492Z,6532.00
2022-10-12T14:53:10.468Z,6452.00
2022-10-12T14:54:10.442Z,6352.00
2022-10-12T14:55:10.421Z,5164.00
2022-10-12T14:56:10.395Z,4892.00
2022-10-12T14:57:10.723Z,5980.00
2022-10-12T14:58:10.351Z,4472.00
2022-10-12T14:59:10.325Z,4884.00
2022-10-12T15:00:10.301Z,5688.00
2022-10-12T15:01:10.400Z,5600.00
2022-10-12T15:02:10.254Z,5500.00
2022-10-12T15:03:10.230Z,5412.00
2022-10-12T15:04:10.208Z,5312.00
2022-10-12T15:05:10.184Z,5204.00
2022-10-12T15:06:10.165Z,5140.00
2022-10-12T15:07:10.457Z,5048.00
2022-10-12T15:08:10.160Z,4960.00
2022-10-12T15:09:10.087Z,4844.00
2022-10-12T15:10:10.063Z,4748.00
2022-10-12T15:11:10.043Z,4656.00
2022-10-12T15:12:10.024Z,4564.00
2022-10-12T15:13:10.017Z,4492.00
2022-10-12T15:14:09.971Z,4392.00
2022-10-12T15:15:09.947Z,4292.00
2022-10-12T15:16:09.921Z,4208.00
2022-10-12T15:17:10.176Z,4124.00
2022-10-12T15:18:09.880Z,4004.00
2022-10-12T15:19:09.857Z,3524.00
2022-10-12T15:20:09.836Z,3072.00
2022-10-12T15:21:09.809Z,2972.00
2022-10-12T15:22:09.781Z,2920.00
2022-10-12T15:23:09.763Z,2880.00
2022-10-12T15:24:09.734Z,2856.00
2022-10-12T15:25:09.715Z,2816.00
2022-10-12T15:26:09.683Z,2776.00
2022-10-12T15:27:09.774Z,2752.00
2022-10-12T15:28:09.634Z,2716.00
2022-10-12T15:29:09.644Z,2672.00
2022-10-12T15:30:09.590Z,2632.00
2022-10-12T15:31:17.401Z,2600.00
2022-10-12T15:32:09.539Z,2564.00
2022-10-12T15:33:09.514Z,2528.00
2022-10-12T15:34:09.496Z,2496.00
2022-10-12T15:35:09.469Z,2456.00
2022-10-12T15:36:09.549Z,2424.00
2022-10-12T15:37:09.563Z,2384.00
2022-10-12T15:38:09.401Z,2348.00
2022-10-12T15:39:09.373Z,2312.00
2022-10-12T15:40:09.348Z,2276.00
2022-10-12T15:41:09.323Z,2236.00
2022-10-12T15:42:09.296Z,2204.00
2022-10-12T15:43:09.316Z,2164.00
2022-10-12T15:44:09.249Z,2124.00
2022-10-12T15:45:09.379Z,2088.00
2022-10-12T15:46:09.197Z,2048.00
2022-10-12T15:47:09.174Z,2012.00
2022-10-12T15:48:09.151Z,1968.00
2022-10-12T15:49:16.231Z,1928.00
2022-10-12T15:50:09.146Z,1884.00
2022-10-12T15:51:09.078Z,1840.00
2022-10-12T15:52:09.049Z,1800.00
2022-10-12T15:53:09.021Z,1760.00
2022-10-12T15:54:08.995Z,1716.00
2022-10-12T15:55:08.969Z,1668.00
2022-10-12T15:56:08.946Z,1628.00
2022-10-12T15:57:08.918Z,1584.00
2022-10-12T15:58:08.893Z,1540.00
2022-10-12T15:59:08.868Z,1492.00
2022-10-12T16:00:08.848Z,1444.00
2022-10-12T16:01:09.015Z,1400.00
2022-10-12T16:02:08.793Z,1348.00
2022-10-12T16:03:08.769Z,1292.00
2022-10-12T16:04:08.894Z,1236.00
2022-10-12T16:05:08.715Z,1180.00
2022-10-12T16:06:08.756Z,1132.00
2022-10-12T16:07:08.983Z,1088.00
2022-10-12T16:08:08.638Z,1052.00
2022-10-12T16:09:08.609Z,1012.00
2022-10-12T16:10:08.587Z,972.00
2022-10-12T16:11:08.560Z,924.00
2022-10-12T16:12:08.532Z,880.00
2022-10-12T16:13:08.511Z,836.00
2022-10-12T16:14:08.479Z,792.00
2022-10-12T16:15:08.452Z,748.00
2022-10-12T16:16:08.426Z,704.00
2022-10-12T16:17:08.420Z,664.00
2022-10-12T16:18:08.375Z,616.00
2022-10-12T16:19:08.350Z,572.00
2022-10-12T16:20:08.319Z,532.00
2022-10-12T16:21:08.292Z,488.00
2022-10-12T16:22:08.269Z,444.00
2022-10-12T16:23:08.239Z,412.00
2022-10-12T16:24:08.212Z,376.00
2022-10-12T16:27:21.698Z,272.00
2022-10-12T16:27:22.235Z,272.00
2022-10-12T16:28:27.633Z,248.00
2022-10-12T16:31:38.623Z,172.00
2022-10-12T16:32:23.811Z,160.00
2022-10-12T16:34:10.386Z,128.00
2022-10-12T16:34:25.714Z,124.00
2022-10-12T16:36:18.834Z,96.00
2022-10-12T16:36:24.380Z,96.00
2022-10-12T16:39:22.527Z,64.00
2022-10-12T16:39:25.043Z,64.00
2022-10-12T16:40:33.166Z,56.00
2022-10-12T16:41:23.424Z,48.00
2022-10-12T16:42:23.597Z,40.00
2022-10-12T16:43:57.205Z,28.00
2022-10-12T16:44:26.105Z,28.00
2022-10-12T16:45:29.078Z,24.00
2022-10-12T16:47:48.043Z,16.00
2022-10-12T16:47:48.552Z,16.00
2022-10-12T16:49:09.879Z,12.00
2022-10-12T16:49:48.488Z,8.00
2022-10-12T16:50:59.086Z,8.00
2022-10-12T16:51:54.441Z,4.00
2022-10-12T16:56:28.750Z,0.00
2022-10-12T16:58:09.995Z,4.00
2022-10-12T16:58:10.486Z,4.00
2022-10-12T17:02:47.732Z,0.00
2022-10-12T17:02:48.499Z,0.00
2022-10-12T17:04:18.671Z,0.00
2022-10-12T17:05:09.172Z,0.00
2022-10-12T17:06:13.058Z,0.00
2022-10-12T17:07:12.450Z,0.00
2022-10-12T17:11:10.319Z,0.00
2022-10-12T17:13:02.581Z,0.00
2022-10-12T17:13:03.034Z,0.00
2022-10-12T17:14:54.134Z,0.00
2022-10-12T17:16:14.343Z,0.00
2022-10-12T17:16:36.571Z,0.00
2022-10-12T17:27:31.426Z,0.00
2022-10-12T17:27:31.441Z,0.00
2022-10-12T17:28:28.492Z,0.00
2022-10-12T17:30:49.480Z,0.00
2022-10-12T17:37:03.660Z,0.00
2022-10-12T17:37:04.127Z,0.00
2022-10-12T17:38:08.084Z,0.00
2022-10-12T17:40:32.238Z,0.00
2022-10-12T17:40:32.702Z,0.00
2022-10-12T17:42:26.289Z,0.00
2022-10-12T17:44:04.083Z,0.00
2022-10-12T17:44:34.767Z,0.00
2022-10-12T17:45:50.561Z,0.00
2022-10-12T17:47:17.189Z,0.00
2022-10-12T17:47:22.705Z,0.00
2022-10-12T17:49:47.354Z,0.00
2022-10-12T17:49:47.824Z,0.00
2022-10-12T17:50:47.796Z,0.00
2022-10-12T17:53:11.487Z,0.00
2022-10-12T17:53:44.967Z,0.00
2022-10-12T17:54:27.032Z,0.00
2022-10-12T17:55:29.582Z,0.00
2022-10-12T17:56:14.181Z,0.00
2022-10-12T17:57:11.924Z,0.00
2022-10-12T17:58:58.290Z,0.00
2022-10-12T17:59:17.273Z,0.00
2022-10-12T18:02:49.073Z,0.00
2022-10-12T18:02:49.542Z,0.00
2022-10-12T18:03:51.164Z,0.00
2022-10-12T18:11:29.611Z,0.00
2022-10-12T18:11:30.080Z,0.00
2022-10-12T18:12:33.534Z,0.00
2022-10-12T18:14:24.700Z,0.00
2022-10-12T18:14:30.741Z,0.00
2022-10-12T18:15:31.856Z,0.00
2022-10-12T18:18:44.428Z,0.00
2022-10-12T18:18:44.914Z,0.00
2022-10-12T18:20:20.326Z,0.00
2022-10-12T18:23:21.325Z,0.00
2022-10-12T18:25:59.876Z,0.00
2022-10-12T18:26:00.778Z,0.00
2022-10-12T18:27:03.173Z,0.00
2022-10-12T18:28:00.285Z,0.00
2022-10-12T18:29:42.851Z,0.00
2022-10-12T18:30:00.863Z,0.00
2022-10-12T18:31:27.748Z,0.00
2022-10-12T18:32:00.223Z,0.00
2022-10-12T18:35:55.587Z,0.00
2022-10-12T18:35:56.279Z,0.00
2022-10-12T18:50:03.816Z,0.00
2022-10-12T18:50:09.280Z,0.00
2022-10-12T18:51:13.530Z,0.00
2022-10-12T18:55:00.148Z,0.00
2022-10-12T18:55:15.092Z,0.00
2022-10-12T18:56:00.588Z,0.00
2022-10-12T18:58:25.760Z,0.00
2022-10-12T18:58:26.229Z,0.00
2022-10-12T18:59:26.209Z,0.00
2022-10-12T19:05:12.991Z,0.00
2022-10-12T19:05:13.652Z,0.00
2022-10-12T19:06:16.329Z,0.00
2022-10-12T19:07:13.621Z,0.00
2022-10-12T19:09:36.404Z,0.00
2022-10-12T19:10:01.670Z,0.00
2022-10-12T19:11:02.044Z,0.00
2022-10-12T19:12:00.327Z,0.00
2022-10-12T19:12:38.643Z,0.00
2022-10-12T19:13:41.318Z,0.00
2022-10-12T19:14:54.946Z,0.00
2022-10-12T19:17:42.909Z,0.00
2022-10-12T19:17:58.228Z,0.00
2022-10-12T19:19:50.456Z,0.00
2022-10-12T19:19:50.995Z,0.00
2022-10-12T19:22:19.895Z,0.00
2022-10-12T19:24:03.605Z,0.00
2022-10-12T19:24:08.061Z,0.00
2022-10-12T19:25:27.302Z,0.00
2022-10-12T19:33:01.043Z,0.00
2022-10-12T19:33:05.769Z,0.00
2022-10-12T19:34:46.297Z,0.00
2022-10-12T19:35:05.534Z,0.00
2022-10-12T19:36:47.152Z,0.00
2022-10-12T19:37:20.055Z,0.00
2022-10-12T19:38:44.816Z,0.00
2022-10-12T19:39:16.143Z,0.00
2022-10-12T19:40:22.128Z,0.00
2022-10-12T19:42:04.884Z,0.00
2022-10-12T19:42:10.688Z,0.00
2022-10-12T19:44:17.154Z,0.00
2022-10-12T19:44:17.625Z,0.00
2022-10-12T19:45:19.301Z,0.00
2022-10-12T19:47:26.477Z,0.00
2022-10-12T19:47:27.147Z,0.00
2022-10-12T19:48:30.388Z,0.00
2022-10-12T19:53:52.375Z,0.00
2022-10-12T19:53:53.015Z,0.00
2022-10-12T19:54:52.984Z,0.00
2022-10-12T19:58:10.414Z,0.00
2022-10-12T19:58:10.885Z,0.00
2022-10-12T19:59:50.687Z,0.00
2022-10-12T20:00:16.170Z,0.00
2022-10-12T20:01:26.287Z,0.00
2022-10-12T20:02:38.575Z,0.00
2022-10-12T20:05:05.482Z,0.00
2022-10-12T20:05:26.842Z,0.00
2022-10-12T20:06:06.116Z,0.00
2022-10-12T20:08:15.678Z,0.00
2022-10-12T20:08:50.360Z,0.00
2022-10-12T20:11:53.534Z,0.00
2022-10-12T20:11:54.007Z,0.00
2022-10-12T20:17:29.385Z,0.00
2022-10-12T20:17:30.203Z,0.00
2022-10-12T20:19:04.247Z,0.00
2022-10-12T20:19:34.721Z,0.00
2022-10-12T20:23:59.856Z,0.00
2022-10-12T20:26:31.743Z,0.00
2022-10-12T20:26:32.211Z,0.00
2022-10-12T20:27:32.302Z,0.00
2022-10-12T20:28:32.164Z,0.00
2022-10-12T20:30:06.144Z,0.00
2022-10-12T20:39:36.376Z,0.00
2022-10-12T20:39:36.841Z,0.00
2022-10-12T20:40:56.672Z,0.00
2022-10-12T20:41:39.020Z,0.00
2022-10-12T20:44:50.346Z,0.00
2022-10-12T20:44:50.730Z,0.00
2022-10-12T20:47:09.425Z,0.00
2022-10-12T20:47:09.892Z,0.00
2022-10-12T20:48:24.442Z,0.00
2022-10-12T20:49:35.512Z,0.00
2022-10-12T20:52:07.627Z,0.00
2022-10-12T20:52:08.417Z,0.00
2022-10-12T20:53:44.923Z,0.00
2022-10-12T20:55:01.302Z,0.00
2022-10-12T20:55:29.746Z,0.00
2022-10-12T20:59:17.026Z,0.00
2022-10-12T20:59:54.469Z,0.00
2022-10-12T21:01:37.675Z,0.00
2022-10-12T21:01:40.572Z,0.00
2022-10-12T21:06:28.217Z,0.00
